Sunday, November 18, 2018, 3:05 PM GMT
Back to Local

CWQV, Puinte Claveau

Location: , , Canada Lat: 48.267
Local Time: 3:05 PM GMT (15:05 GMT) Lon: -70.117
Time Zone: GMT Elev: 0 ft

Show me the last for .
Show Coded

Time T Td Feel RH Dir Speed Gust Alt SLP Vis Weather Sky Remarks
2018-11-18 14:00 18 9 4 67 260° 14 - - - 0 Peak wind: 21 mph (19 kts) from 260° at 43 min
2018-11-18 13:00 17 9 3 69 270° 14 - - - 0 Peak wind: 20 mph (18 kts) from 260° at 12 min
2018-11-18 12:00 17 8 0 67 260° 16 22 - - 0 Peak wind: 23 mph (20 kts) from 270° at 15 min
2018-11-18 11:00 18 9 -1 67 270° 18 26 - - 0 Peak wind: 31 mph (27 kts) from 280° at 08 min
2018-11-18 10:00 17 8 -2 65 280° 22 30 - - 0 Peak wind: 39 mph (34 kts) from 280° at 03 min
2018-11-18 09:00 17 6 -3 60 280° 25 35 - - 0 Peak wind: 37 mph (33 kts) from 290° at 49 min
2018-11-18 08:00 18 8 -1 64 280° 25 31 - - 0 Peak wind: 39 mph (34 kts) from 270° at 31 min
2018-11-18 07:00 20 13 2 73 280° 17 25 - - 0 Peak wind: 32 mph (28 kts) from 280° at 00 min
2018-11-18 06:00 21 12 3 66 280° 22 32 - - 0 Peak wind: 32 mph (28 kts) from 280° at 00 min
2018-11-18 05:00 23 14 5 67 280° 24 32 - - 0 Peak wind: 32 mph (28 kts) from 270° at 44 min
2018-11-18 04:00 25 16 9 69 280° 21 26 - - 0 Peak wind: 26 mph (23 kts) from 280° at 10 min
2018-11-18 03:00 26 17 9 70 280° 21 29 - - 0 Peak wind: 31 mph (27 kts) from 280° at 08 min
2018-11-18 02:00 26 18 10 70 280° 14 25 - - 0 Peak wind: 32 mph (28 kts) from 280° at 26 min
2018-11-18 01:00 27 18 11 68 280° 22 31 - - 0 Peak wind: 32 mph (28 kts) from 280° at 49 min
2018-11-18 00:00 28 20 14 71 280° 23 - - - 0 Peak wind: 29 mph (26 kts) from 280° at 34 min
2018-11-17 23:00 29 21 14 73 280° 22 28 - - 0 Peak wind: 31 mph (27 kts) from 280° at 05 min
2018-11-17 22:00 29 22 14 74 280° 23 31 - - 0 Peak wind: 34 mph (30 kts) from 270° at 16 min
2018-11-17 21:00 31 23 16 70 280° 23 32 - - 0 Peak wind: 33 mph (29 kts) from 280° at 40 min
2018-11-17 20:00 29 25 14 84 280° 18 28 - - 0 Peak wind: 31 mph (27 kts) from 280° at 10 min
2018-11-17 19:00 31 25 18 78 280° 16 23 - - 0 Peak wind: 26 mph (23 kts) from 280° at 31 min
2018-11-17 18:00 31 26 18 81 280° 15 21 - - 0 Peak wind: 23 mph (20 kts) from 280° at 33 min
2018-11-17 17:00 31 24 18 77 280° 15 21 - - 0 Peak wind: 20 mph (18 kts) from 280° at 51 min
2018-11-17 16:00 29 26 15 86 280° 16 23 - - 0 Peak wind: 23 mph (20 kts) from 280° at 55 min

Support USWX by starting your Amazon purchase here.